createdAt,value
2018-03-27T00:02:26.151Z,80.30
2018-03-27T00:04:54.820Z,78.20
2018-03-27T00:07:23.423Z,78.90
2018-03-27T00:09:51.881Z,78.50
2018-03-27T00:12:20.284Z,79.50
2018-03-27T00:14:48.576Z,78.70
2018-03-27T00:17:16.890Z,79.20
2018-03-27T00:19:45.211Z,79.10
2018-03-27T00:22:13.707Z,79.10
2018-03-27T00:24:42.925Z,79.30
2018-03-27T00:27:10.766Z,79.30
2018-03-27T00:29:50.704Z,78.80
2018-03-27T00:32:36.936Z,78.50
2018-03-27T00:35:23.227Z,78.70
2018-03-27T00:38:09.458Z,79.10
2018-03-27T00:40:44.034Z,78.80
2018-03-27T00:43:13.708Z,78.80
2018-03-27T00:45:41.803Z,79.40
2018-03-27T00:48:09.887Z,79.60
2018-03-27T00:50:37.975Z,80.40
2018-03-27T00:53:07.064Z,79.90
2018-03-27T00:55:35.346Z,79.90
2018-03-27T00:58:03.633Z,80.10
2018-03-27T01:00:31.959Z,80.10
2018-03-27T01:03:00.342Z,79.70
2018-03-27T01:05:28.820Z,80.20
2018-03-27T01:07:57.146Z,80.00
2018-03-27T01:10:25.708Z,79.70
2018-03-27T01:12:54.246Z,79.50
2018-03-27T01:15:23.557Z,80.30
2018-03-27T01:17:52.671Z,81.00
2018-03-27T01:20:21.034Z,80.80
2018-03-27T01:22:49.315Z,81.00
2018-03-27T01:25:17.643Z,81.10
2018-03-27T01:27:45.932Z,80.90
2018-03-27T01:30:14.500Z,80.90
2018-03-27T01:32:42.862Z,81.60
2018-03-27T01:35:11.299Z,82.40
2018-03-27T01:37:42.355Z,81.60
2018-03-27T01:40:11.554Z,81.50
2018-03-27T01:42:39.834Z,81.50
2018-03-27T01:45:08.155Z,81.80
2018-03-27T01:47:36.442Z,82.00
2018-03-27T01:50:04.767Z,82.00
2018-03-27T01:52:33.064Z,81.20
2018-03-27T01:55:01.377Z,80.60
2018-03-27T01:57:29.800Z,80.00
2018-03-27T01:59:59.037Z,81.00
2018-03-27T02:02:27.586Z,80.60
2018-03-27T02:04:56.114Z,80.40
2018-03-27T02:07:24.885Z,80.20
2018-03-27T02:09:53.596Z,80.10
2018-03-27T02:12:27.813Z,79.90
2018-03-27T02:15:01.867Z,79.20
2018-03-27T02:17:35.990Z,79.60
2018-03-27T02:20:10.662Z,79.40
2018-03-27T02:22:38.938Z,79.40
2018-03-27T02:25:08.022Z,78.90
2018-03-27T02:27:37.223Z,78.90
2018-03-27T02:30:05.808Z,79.00
2018-03-27T02:32:34.095Z,79.20
2018-03-27T02:35:03.149Z,80.60
2018-03-27T02:37:31.788Z,80.60
2018-03-27T02:40:00.150Z,79.40
2018-03-27T02:42:28.588Z,80.40
2018-03-27T02:44:58.005Z,80.90
2018-03-27T02:47:27.523Z,81.40
2018-03-27T02:49:56.042Z,80.60
2018-03-27T02:52:24.775Z,80.60
2018-03-27T02:54:53.299Z,81.20
2018-03-27T02:57:22.569Z,81.60
2018-03-27T02:59:52.425Z,81.70
2018-03-27T03:02:20.872Z,81.60
2018-03-27T03:04:49.927Z,81.50
2018-03-27T03:07:18.247Z,81.40
2018-03-27T03:09:46.615Z,80.70
2018-03-27T03:12:15.250Z,79.80
2018-03-27T03:14:43.732Z,79.70
2018-03-27T03:17:12.064Z,80.50
2018-03-27T03:19:40.399Z,81.40
2018-03-27T03:22:08.730Z,82.20
2018-03-27T03:24:37.781Z,81.70
2018-03-27T03:27:06.098Z,81.70
2018-03-27T03:29:34.384Z,81.80
2018-03-27T03:32:02.714Z,81.50
2018-03-27T03:34:31.003Z,81.70
2018-03-27T03:36:59.378Z,81.60
2018-03-27T03:39:28.228Z,80.40
2018-03-27T03:41:56.630Z,80.30
2018-03-27T03:44:24.991Z,80.70
2018-03-27T03:46:53.458Z,81.00
2018-03-27T03:49:21.746Z,81.10
2018-03-27T03:51:50.088Z,80.60
2018-03-27T03:54:19.139Z,80.50
2018-03-27T03:56:47.555Z,80.50
2018-03-27T03:59:15.871Z,80.60
2018-03-27T04:01:44.210Z,81.00
2018-03-27T04:04:15.629Z,80.80
2018-03-27T04:06:44.062Z,80.40
2018-03-27T04:09:12.459Z,80.60
2018-03-27T04:11:40.758Z,81.00
2018-03-27T04:14:09.076Z,81.70
2018-03-27T04:16:37.359Z,81.30
2018-03-27T04:19:05.959Z,81.50
2018-03-27T04:21:34.250Z,81.30
2018-03-27T04:24:02.539Z,81.10
2018-03-27T04:26:30.932Z,81.60
2018-03-27T04:29:00.227Z,81.70
2018-03-27T04:31:28.687Z,81.70
2018-03-27T04:33:57.149Z,81.90
2018-03-27T04:36:25.802Z,82.40
2018-03-27T04:38:54.414Z,82.90
2018-03-27T04:41:23.039Z,83.60
2018-03-27T04:43:51.423Z,84.30
2018-03-27T04:46:19.755Z,84.60
2018-03-27T04:48:48.044Z,83.30
2018-03-27T04:51:16.495Z,82.90
2018-03-27T04:53:45.751Z,82.70
2018-03-27T04:56:14.603Z,82.60
2018-03-27T04:58:42.923Z,83.00
2018-03-27T05:01:11.993Z,82.70
2018-03-27T05:03:40.328Z,82.60
2018-03-27T05:06:08.718Z,82.60
2018-03-27T05:08:37.033Z,83.10
2018-03-27T05:11:06.285Z,83.30
2018-03-27T05:13:34.603Z,84.50
2018-03-27T05:16:03.646Z,84.00
2018-03-27T05:18:31.979Z,83.90
2018-03-27T05:21:00.322Z,83.40
2018-03-27T05:23:29.518Z,83.50
2018-03-27T05:25:57.841Z,83.50
2018-03-27T05:28:26.295Z,83.80
2018-03-27T05:30:55.713Z,84.50
2018-03-27T05:33:24.540Z,84.50
2018-03-27T05:35:53.083Z,84.00
2018-03-27T05:38:21.502Z,82.60
2018-03-27T05:40:50.696Z,81.80
2018-03-27T05:43:18.983Z,81.80
2018-03-27T05:45:47.262Z,82.50
2018-03-27T05:48:15.574Z,82.70
2018-03-27T05:50:43.941Z,82.70
2018-03-27T05:53:13.074Z,82.50
2018-03-27T05:55:41.402Z,82.40
2018-03-27T05:58:09.767Z,82.70
2018-03-27T06:03:13.401Z,81.10
2018-03-27T06:05:41.753Z,81.10
2018-03-27T06:08:10.095Z,80.90
2018-03-27T06:10:38.412Z,80.50
2018-03-27T06:13:06.707Z,80.50
2018-03-27T06:15:35.018Z,80.90
2018-03-27T06:18:03.342Z,81.60
2018-03-27T06:20:32.393Z,81.80
2018-03-27T06:23:00.715Z,81.70
2018-03-27T06:25:29.046Z,81.70
2018-03-27T06:27:57.422Z,81.40
2018-03-27T06:30:25.785Z,80.30
2018-03-27T06:32:54.207Z,78.60
2018-03-27T06:35:22.566Z,77.40
2018-03-27T06:37:50.910Z,77.60
2018-03-27T06:40:19.198Z,78.10
2018-03-27T06:42:47.519Z,78.70
2018-03-27T06:45:15.803Z,79.40
2018-03-27T06:47:44.156Z,78.20
2018-03-27T06:50:12.426Z,78.00
2018-03-27T06:52:41.038Z,77.30
2018-03-27T06:55:09.340Z,76.40
2018-03-27T06:57:37.626Z,75.40
2018-03-27T07:00:05.946Z,75.00
2018-03-27T07:02:35.303Z,75.50
2018-03-27T07:05:03.595Z,75.50
2018-03-27T07:07:31.903Z,75.90
2018-03-27T07:10:00.402Z,74.50
2018-03-27T07:12:28.678Z,72.00
2018-03-27T07:14:57.006Z,73.00
2018-03-27T07:17:25.385Z,72.90
2018-03-27T07:19:53.779Z,73.70
2018-03-27T07:22:22.079Z,75.20
2018-03-27T07:24:50.395Z,73.50
2018-03-27T07:27:18.688Z,72.10
2018-03-27T07:29:46.999Z,70.50
2018-03-27T07:32:15.314Z,69.20
2018-03-27T07:34:43.622Z,67.20
2018-03-27T07:37:11.926Z,67.60
2018-03-27T07:39:40.335Z,67.00
2018-03-27T07:42:08.629Z,68.90
2018-03-27T07:44:36.942Z,66.10
2018-03-27T07:47:05.237Z,66.00
2018-03-27T07:49:33.553Z,68.60
2018-03-27T07:52:01.866Z,67.40
2018-03-27T07:54:30.151Z,64.90
2018-03-27T07:56:58.474Z,60.50
2018-03-27T07:59:26.758Z,59.00
2018-03-27T08:01:55.383Z,58.70
2018-03-27T08:04:23.798Z,57.20
2018-03-27T08:06:52.859Z,58.20
2018-03-27T08:09:21.999Z,59.60
2018-03-27T08:11:51.082Z,58.30
2018-03-27T08:14:19.399Z,58.30
2018-03-27T08:16:48.024Z,56.80
2018-03-27T08:19:16.297Z,54.90
2018-03-27T08:21:44.574Z,54.50
2018-03-27T08:24:13.933Z,55.50
2018-03-27T08:26:42.126Z,54.90
2018-03-27T08:29:10.422Z,52.10
2018-03-27T08:31:38.795Z,53.20
2018-03-27T08:34:07.107Z,51.30
2018-03-27T08:36:36.294Z,57.00
2018-03-27T08:39:04.576Z,56.90
2018-03-27T08:41:32.854Z,56.60
2018-03-27T08:44:01.162Z,55.00
2018-03-27T08:46:29.447Z,55.30
2018-03-27T08:48:57.762Z,56.20
2018-03-27T08:51:26.052Z,56.80
2018-03-27T08:53:54.774Z,56.80
2018-03-27T08:56:23.103Z,57.80
2018-03-27T08:58:51.581Z,57.70
2018-03-27T09:01:19.893Z,56.60
2018-03-27T09:03:48.210Z,58.20
2018-03-27T09:06:16.587Z,56.40
2018-03-27T09:08:44.828Z,57.00
2018-03-27T09:11:13.150Z,58.40
2018-03-27T09:13:41.461Z,56.30
2018-03-27T09:16:09.779Z,56.50
2018-03-27T09:18:38.067Z,56.00
2018-03-27T09:21:07.170Z,56.00
2018-03-27T09:23:35.442Z,56.00
2018-03-27T09:26:03.767Z,54.70
2018-03-27T09:28:32.047Z,54.60
2018-03-27T09:31:00.330Z,53.50
2018-03-27T09:33:28.647Z,54.80
2018-03-27T09:35:56.942Z,56.40
2018-03-27T09:38:25.283Z,56.00
2018-03-27T09:40:53.599Z,55.30
2018-03-27T09:43:21.958Z,55.80
2018-03-27T09:45:50.248Z,57.10
2018-03-27T09:48:18.559Z,56.90
2018-03-27T09:50:46.874Z,57.00
2018-03-27T09:53:15.186Z,56.00
2018-03-27T09:55:43.566Z,56.00
2018-03-27T09:58:11.902Z,57.00
2018-03-27T10:00:45.790Z,56.80
2018-03-27T10:03:14.103Z,57.60
2018-03-27T10:05:42.417Z,56.80
2018-03-27T10:08:10.743Z,57.20
2018-03-27T10:10:39.032Z,58.20
2018-03-27T10:13:08.110Z,60.50
2018-03-27T10:15:36.391Z,61.20
2018-03-27T10:18:05.486Z,60.70
2018-03-27T10:20:33.767Z,60.70
2018-03-27T10:23:02.047Z,61.00
2018-03-27T10:25:30.350Z,59.60
2018-03-27T10:27:58.631Z,60.00
2018-03-27T10:30:27.008Z,59.50
2018-03-27T10:32:56.133Z,58.50
2018-03-27T10:35:25.291Z,58.50
2018-03-27T10:37:53.699Z,58.40
2018-03-27T10:40:22.032Z,58.30
2018-03-27T10:42:50.314Z,57.90
2018-03-27T10:45:18.626Z,57.70
2018-03-27T10:47:46.914Z,57.50
2018-03-27T10:50:15.227Z,57.70
2018-03-27T10:52:44.527Z,57.20
2018-03-27T10:55:12.847Z,56.40
2018-03-27T10:57:41.126Z,56.20
2018-03-27T11:00:09.475Z,55.70
2018-03-27T11:02:37.750Z,56.60
2018-03-27T11:05:06.084Z,55.30
2018-03-27T11:07:34.362Z,52.40
2018-03-27T11:10:02.936Z,51.80
2018-03-27T11:12:31.178Z,52.00
2018-03-27T11:14:59.458Z,49.00
2018-03-27T11:17:27.922Z,51.10
2018-03-27T11:19:56.231Z,51.00
2018-03-27T11:22:24.620Z,51.20
2018-03-27T11:24:52.983Z,53.10
2018-03-27T11:27:21.708Z,53.00
2018-03-27T11:29:50.059Z,52.80
2018-03-27T11:32:18.342Z,54.40
2018-03-27T11:34:47.428Z,55.30
2018-03-27T11:37:15.712Z,55.30
2018-03-27T11:39:43.991Z,54.20
2018-03-27T11:42:12.306Z,54.30
2018-03-27T11:44:40.589Z,53.30
2018-03-27T11:47:09.713Z,52.70
2018-03-27T11:49:38.003Z,52.70
2018-03-27T11:52:07.079Z,53.00
2018-03-27T11:54:35.378Z,53.00
2018-03-27T11:57:03.967Z,53.10
2018-03-27T11:59:32.250Z,52.90
2018-03-27T12:02:00.534Z,53.30
2018-03-27T12:04:29.614Z,53.20
2018-03-27T12:06:58.014Z,53.20
2018-03-27T12:09:26.403Z,52.30
2018-03-27T12:11:54.874Z,51.30
2018-03-27T12:14:23.266Z,50.50
2018-03-27T12:16:52.347Z,49.30
2018-03-27T12:19:21.438Z,50.00
2018-03-27T12:21:49.777Z,50.00
2018-03-27T12:24:18.059Z,50.10
2018-03-27T12:26:46.334Z,51.70
2018-03-27T12:29:14.649Z,53.30
2018-03-27T12:31:43.115Z,53.30
2018-03-27T12:34:11.567Z,51.00
2018-03-27T12:36:39.842Z,51.90
2018-03-27T12:39:08.118Z,50.90
2018-03-27T12:41:36.435Z,49.30
2018-03-27T12:44:05.518Z,50.50
2018-03-27T12:46:33.799Z,50.50
2018-03-27T12:49:02.178Z,50.40
2018-03-27T12:51:30.491Z,49.60
2018-03-27T12:53:58.786Z,51.10
2018-03-27T12:56:27.112Z,51.10
2018-03-27T12:58:55.607Z,51.10
2018-03-27T13:01:24.058Z,49.90
2018-03-27T13:03:53.187Z,50.30
2018-03-27T13:06:22.319Z,50.90
2018-03-27T13:08:51.398Z,49.30
2018-03-27T13:11:19.675Z,49.30
2018-03-27T13:13:47.950Z,49.10
2018-03-27T13:16:16.398Z,49.60
2018-03-27T13:18:44.674Z,49.90
2018-03-27T13:21:13.024Z,48.00
2018-03-27T13:23:41.535Z,50.00
2018-03-27T13:26:09.838Z,49.80
2018-03-27T13:28:38.119Z,48.90
2018-03-27T13:31:06.431Z,49.40
2018-03-27T13:33:34.719Z,50.30
2018-03-27T13:36:03.034Z,51.10
2018-03-27T13:38:31.346Z,49.30
2018-03-27T13:40:59.735Z,48.60
2018-03-27T13:43:28.368Z,48.90
2018-03-27T13:45:56.795Z,49.10
2018-03-27T13:48:25.206Z,49.00
2018-03-27T13:50:53.750Z,48.70
2018-03-27T13:53:22.267Z,50.60
2018-03-27T13:55:50.654Z,50.80
2018-03-27T13:58:18.962Z,49.80
2018-03-27T14:00:47.258Z,47.50
2018-03-27T14:03:16.336Z,49.10
2018-03-27T14:05:44.709Z,49.10
2018-03-27T14:08:13.071Z,49.30
2018-03-27T14:10:41.412Z,47.50
2018-03-27T14:13:09.762Z,47.40
2018-03-27T14:15:38.047Z,48.40
2018-03-27T14:18:06.370Z,47.30
2018-03-27T14:20:34.658Z,45.70
2018-03-27T14:23:02.984Z,44.80
2018-03-27T14:25:31.258Z,46.40
2018-03-27T14:27:59.639Z,46.90
2018-03-27T14:30:28.127Z,46.00
2018-03-27T14:32:56.532Z,44.60
2018-03-27T14:35:24.911Z,46.20
2018-03-27T14:37:54.223Z,46.50
2018-03-27T14:40:24.015Z,43.60
2018-03-27T14:42:52.395Z,43.60
2018-03-27T14:45:21.480Z,43.90
2018-03-27T14:47:49.755Z,44.00
2018-03-27T14:50:18.839Z,44.70
2018-03-27T14:52:47.155Z,44.70
2018-03-27T14:55:15.472Z,44.40
2018-03-27T14:57:44.618Z,46.40
2018-03-27T15:00:12.970Z,46.40
2018-03-27T15:02:41.401Z,45.40
2018-03-27T15:05:10.446Z,46.90
2018-03-27T15:07:38.869Z,46.90
2018-03-27T15:10:07.165Z,46.10
2018-03-27T15:12:35.475Z,48.10
2018-03-27T15:15:03.758Z,46.20
2018-03-27T15:17:32.146Z,47.30
2018-03-27T15:20:01.295Z,48.20
2018-03-27T15:22:29.663Z,48.10
2018-03-27T15:24:59.043Z,49.70
2018-03-27T15:27:27.533Z,49.60
2018-03-27T15:29:56.011Z,47.50
2018-03-27T15:32:24.354Z,47.40
2018-03-27T15:34:52.990Z,48.60
2018-03-27T15:37:22.081Z,49.20
2018-03-27T15:39:51.182Z,50.40
2018-03-27T15:42:19.529Z,50.40
2018-03-27T15:44:47.838Z,52.00
2018-03-27T15:47:16.158Z,52.30
2018-03-27T15:49:45.448Z,52.20
2018-03-27T15:52:13.838Z,52.10
2018-03-27T15:54:42.187Z,52.60
2018-03-27T15:57:11.491Z,53.30
2018-03-27T15:59:39.820Z,53.30
2018-03-27T16:02:09.870Z,53.90
2018-03-27T16:04:39.879Z,53.60
2018-03-27T16:07:08.189Z,53.60
2018-03-27T16:09:37.408Z,54.60
2018-03-27T16:12:05.734Z,54.70
2018-03-27T16:14:35.757Z,54.40
2018-03-27T16:17:04.071Z,54.30
2018-03-27T16:19:33.118Z,55.40
2018-03-27T16:22:01.427Z,55.30
2018-03-27T16:24:29.747Z,55.70
2018-03-27T16:26:58.111Z,54.90
2018-03-27T16:29:26.545Z,54.60
2018-03-27T16:31:55.027Z,54.50
2018-03-27T16:34:24.136Z,54.50
2018-03-27T16:36:53.267Z,54.80
2018-03-27T16:39:21.625Z,54.70
2018-03-27T16:41:49.962Z,55.20
2018-03-27T16:44:20.002Z,56.20
2018-03-27T16:46:49.046Z,56.30
2018-03-27T16:49:17.367Z,56.30
2018-03-27T16:51:45.688Z,56.70
2018-03-27T16:54:14.768Z,57.10
2018-03-27T16:56:43.173Z,57.10
2018-03-27T16:59:11.839Z,58.10
2018-03-27T17:01:40.978Z,57.60
2018-03-27T17:04:10.020Z,58.20
2018-03-27T17:06:39.342Z,58.20
2018-03-27T17:09:07.627Z,58.70
2018-03-27T17:11:36.674Z,60.10
2018-03-27T17:14:05.214Z,60.00
2018-03-27T17:16:33.498Z,60.70
2018-03-27T17:19:01.774Z,60.80
2018-03-27T17:21:30.086Z,59.80
2018-03-27T17:23:58.606Z,59.90
2018-03-27T17:26:26.962Z,61.00
2018-03-27T17:28:55.420Z,60.10
2018-03-27T17:31:24.870Z,59.70
2018-03-27T17:33:53.203Z,59.90
2018-03-27T17:36:21.539Z,59.90
2018-03-27T17:38:49.855Z,60.70
2018-03-27T17:41:18.166Z,61.40
2018-03-27T17:43:46.455Z,62.30
2018-03-27T17:46:14.786Z,62.60
2018-03-27T17:48:43.260Z,63.00
2018-03-27T17:51:11.662Z,62.90
2018-03-27T17:53:40.059Z,62.70
2018-03-27T17:56:08.338Z,63.50
2018-03-27T17:58:37.419Z,62.40
2018-03-27T18:01:05.735Z,62.40
2018-03-27T18:03:34.059Z,63.40
2018-03-27T18:06:03.133Z,64.20
2018-03-27T18:08:32.306Z,64.20
2018-03-27T18:11:01.383Z,64.40
2018-03-27T18:13:29.695Z,64.40
2018-03-27T18:15:58.111Z,63.60
2018-03-27T18:18:27.705Z,63.40
2018-03-27T18:20:56.135Z,63.40
2018-03-27T18:23:24.516Z,63.90
2018-03-27T18:25:52.997Z,63.90
2018-03-27T18:28:21.298Z,64.10
2018-03-27T18:30:49.624Z,63.50
2018-03-27T18:33:17.951Z,64.00
2018-03-27T18:35:46.226Z,63.50
2018-03-27T18:38:14.570Z,64.30
2018-03-27T18:40:43.707Z,65.00
2018-03-27T18:43:12.181Z,65.00
2018-03-27T18:45:41.266Z,64.60
2018-03-27T18:48:09.595Z,64.60
2018-03-27T18:50:37.921Z,64.50
2018-03-27T18:53:06.203Z,64.70
2018-03-27T18:55:34.736Z,65.30
2018-03-27T18:58:03.770Z,65.70
2018-03-27T19:00:32.144Z,65.70
2018-03-27T19:03:00.427Z,65.80
2018-03-27T19:05:29.182Z,66.00
2018-03-27T19:07:58.269Z,67.20
2018-03-27T19:10:26.882Z,67.00
2018-03-27T19:12:56.952Z,66.90
2018-03-27T19:15:25.435Z,66.80
2018-03-27T19:17:53.886Z,67.10
2018-03-27T19:20:22.238Z,67.60
2018-03-27T19:22:51.347Z,67.70
2018-03-27T19:25:19.622Z,67.70
2018-03-27T19:27:47.947Z,67.90
2018-03-27T19:30:16.222Z,68.10
2018-03-27T19:32:44.542Z,68.10
2018-03-27T19:35:13.007Z,68.70
2018-03-27T19:37:41.350Z,69.00
2018-03-27T19:40:09.703Z,69.00
2018-03-27T19:42:38.790Z,68.00
2018-03-27T19:45:07.073Z,68.00
2018-03-27T19:47:35.386Z,67.00
2018-03-27T19:50:03.672Z,67.00
2018-03-27T19:52:31.987Z,67.20
2018-03-27T19:55:00.298Z,67.40
2018-03-27T19:57:28.679Z,67.90
2018-03-27T19:59:57.083Z,67.70
2018-03-27T20:02:25.447Z,67.70
2018-03-27T20:04:53.896Z,67.50
2018-03-27T20:07:23.278Z,66.20
2018-03-27T20:09:51.682Z,66.70
2018-03-27T20:12:20.041Z,66.30
2018-03-27T20:14:48.354Z,64.80
2018-03-27T20:17:16.639Z,65.50
2018-03-27T20:19:45.108Z,66.20
2018-03-27T20:22:13.554Z,65.00
2018-03-27T20:24:41.833Z,65.00
2018-03-27T20:27:10.162Z,65.40
2018-03-27T20:29:38.453Z,66.30
2018-03-27T20:32:06.722Z,66.80
2018-03-27T20:34:35.044Z,68.70
2018-03-27T20:37:04.342Z,67.70
2018-03-27T20:39:33.415Z,68.30
2018-03-27T20:42:01.737Z,68.30
2018-03-27T20:44:30.062Z,68.00
2018-03-27T20:46:58.558Z,68.50
2018-03-27T20:49:27.112Z,68.60
2018-03-27T20:51:55.487Z,68.50
2018-03-27T20:54:24.182Z,69.30
2018-03-27T20:56:52.662Z,69.70
2018-03-27T20:59:21.054Z,69.20
2018-03-27T21:01:49.379Z,69.20
2018-03-27T21:04:17.662Z,68.00
2018-03-27T21:06:45.982Z,69.10
2018-03-27T21:09:14.390Z,67.80
2018-03-27T21:11:43.534Z,68.00
2018-03-27T21:14:11.885Z,68.00
2018-03-27T21:16:40.211Z,68.00
2018-03-27T21:19:08.486Z,68.30
2018-03-27T21:21:36.818Z,68.20
2018-03-27T21:24:05.898Z,68.00
2018-03-27T21:26:34.518Z,67.90
2018-03-27T21:29:02.807Z,67.80
2018-03-27T21:31:32.054Z,67.20
2018-03-27T21:34:00.366Z,67.50
2018-03-27T21:36:28.747Z,67.50
2018-03-27T21:38:57.094Z,67.40
2018-03-27T21:41:25.573Z,66.90
2018-03-27T21:43:53.987Z,67.20
2018-03-27T21:46:23.163Z,68.00
2018-03-27T21:48:52.300Z,68.60
2018-03-27T21:51:20.626Z,68.50
2018-03-27T21:53:48.938Z,68.40
2018-03-27T21:56:17.246Z,68.60
2018-03-27T21:58:46.322Z,68.40
2018-03-27T22:01:14.631Z,68.20
2018-03-27T22:03:42.946Z,67.70
2018-03-27T22:06:11.282Z,67.30
2018-03-27T22:08:40.365Z,67.60
2018-03-27T22:11:09.719Z,67.40
2018-03-27T22:13:38.770Z,67.60
2018-03-27T22:16:07.046Z,67.50
2018-03-27T22:18:36.117Z,68.00
2018-03-27T22:21:04.394Z,68.00
2018-03-27T22:23:32.703Z,67.80
2018-03-27T22:26:01.010Z,67.80
2018-03-27T22:28:29.395Z,68.30
2018-03-27T22:30:57.810Z,68.40
2018-03-27T22:33:26.987Z,67.80
2018-03-27T22:35:56.139Z,67.90
2018-03-27T22:38:24.641Z,67.80
2018-03-27T22:40:53.075Z,67.90
2018-03-27T22:43:22.286Z,69.00
2018-03-27T22:45:50.607Z,68.10
2018-03-27T22:48:18.918Z,68.50
2018-03-27T22:50:47.198Z,68.50
2018-03-27T22:53:15.511Z,68.40
2018-03-27T22:55:43.962Z,68.90
2018-03-27T22:58:13.227Z,69.80
2018-03-27T23:00:42.584Z,69.90
2018-03-27T23:03:10.938Z,69.90
2018-03-27T23:05:39.293Z,69.70
2018-03-27T23:08:07.606Z,69.50
2018-03-27T23:10:35.887Z,69.30
2018-03-27T23:13:04.216Z,70.20
2018-03-27T23:15:32.535Z,70.30
2018-03-27T23:18:00.862Z,70.40
2018-03-27T23:20:29.236Z,69.50
2018-03-27T23:22:58.437Z,69.10
2018-03-27T23:25:26.918Z,69.10
2018-03-27T23:27:55.353Z,69.00
2018-03-27T23:30:23.811Z,69.20
2018-03-27T23:32:52.278Z,69.60
2018-03-27T23:35:20.694Z,70.00
2018-03-27T23:37:49.770Z,70.90
2018-03-27T23:40:18.156Z,70.90
2018-03-27T23:42:46.459Z,70.40
2018-03-27T23:45:14.828Z,71.20
2018-03-27T23:47:44.102Z,70.40
2018-03-27T23:50:13.385Z,70.90
2018-03-27T23:52:41.711Z,70.20
2018-03-27T23:55:10.026Z,71.00
2018-03-27T23:57:38.348Z,71.90
